createdAt,value
2019-03-25T00:49:29.395Z,69.67
2019-03-25T00:52:00.493Z,69.72
2019-03-25T00:54:31.742Z,70.44
2019-03-25T00:57:03.748Z,70.38
2019-03-25T00:59:35.143Z,71.23
2019-03-25T01:02:06.673Z,70.67
2019-03-25T01:04:37.815Z,70.75
2019-03-25T01:07:08.899Z,70.82
2019-03-25T01:09:39.637Z,70.98
2019-03-25T01:12:10.695Z,70.45
2019-03-25T01:14:41.383Z,70.83
2019-03-25T01:17:12.832Z,70.50
2019-03-25T01:19:43.668Z,70.89
2019-03-25T01:22:14.345Z,70.43
2019-03-25T01:24:45.125Z,70.92
2019-03-25T01:27:16.203Z,71.44
2019-03-25T01:29:47.124Z,72.07
2019-03-25T01:32:17.845Z,72.02
2019-03-25T01:34:48.969Z,72.82
2019-03-25T01:37:20.011Z,73.24
2019-03-25T01:39:50.749Z,73.32
2019-03-25T01:42:21.820Z,73.25
2019-03-25T01:44:53.102Z,73.49
2019-03-25T01:47:24.150Z,73.68
2019-03-25T01:49:56.297Z,74.13
2019-03-25T01:52:27.754Z,74.10
2019-03-25T01:54:59.076Z,73.99
2019-03-25T01:57:30.396Z,74.05
2019-03-25T02:00:01.474Z,74.04
2019-03-25T02:02:32.501Z,74.58
2019-03-25T02:05:03.999Z,74.44
2019-03-25T02:07:35.285Z,74.65
2019-03-25T02:10:07.800Z,74.71
2019-03-25T02:12:39.303Z,74.87
2019-03-25T02:15:10.370Z,74.57
2019-03-25T02:17:41.275Z,74.19
2019-03-25T02:20:11.772Z,74.07
2019-03-25T02:22:43.268Z,73.89
2019-03-25T02:25:24.930Z,74.20
2019-03-25T02:27:47.265Z,74.31
2019-03-25T02:30:18.315Z,74.55
2019-03-25T02:32:49.084Z,74.17
2019-03-25T02:35:19.926Z,74.15
2019-03-25T02:37:50.684Z,74.58
2019-03-25T02:40:21.632Z,74.72
2019-03-25T02:42:52.708Z,74.81
2019-03-25T02:45:23.470Z,74.33
2019-03-25T02:47:54.151Z,74.50
2019-03-25T02:50:24.821Z,74.67
2019-03-25T02:52:55.566Z,74.63
2019-03-25T02:55:40.809Z,74.16
2019-03-25T02:57:59.325Z,74.23
2019-03-25T03:00:33.701Z,74.42
2019-03-25T03:03:05.912Z,74.75
2019-03-25T03:05:37.927Z,74.87
2019-03-25T03:08:08.651Z,74.89
2019-03-25T03:10:39.565Z,74.90
2019-03-25T03:13:10.571Z,74.49
2019-03-25T03:15:41.418Z,75.01
2019-03-25T03:18:12.147Z,75.85
2019-03-25T03:20:42.887Z,75.51
2019-03-25T03:23:13.887Z,76.09
2019-03-25T03:25:56.266Z,76.04
2019-03-25T03:28:17.337Z,75.88
2019-03-25T03:30:49.547Z,75.87
2019-03-25T03:33:20.665Z,75.90
2019-03-25T03:35:51.760Z,75.97
2019-03-25T03:38:22.920Z,75.51
2019-03-25T03:40:55.111Z,75.78
2019-03-25T03:43:26.336Z,76.11
2019-03-25T03:45:57.302Z,75.88
2019-03-25T03:48:27.853Z,76.43
2019-03-25T03:50:59.229Z,76.70
2019-03-25T03:53:30.214Z,77.16
2019-03-25T03:56:13.076Z,78.08
2019-03-25T03:58:34.878Z,77.98
2019-03-25T04:01:05.578Z,77.88
2019-03-25T04:03:36.692Z,77.62
2019-03-25T04:06:08.066Z,78.36
2019-03-25T04:08:39.152Z,78.06
2019-03-25T04:11:10.193Z,77.83
2019-03-25T04:13:41.334Z,77.39
2019-03-25T04:16:12.733Z,76.36
2019-03-25T04:18:43.619Z,76.41
2019-03-25T04:21:14.803Z,76.57
2019-03-25T04:23:46.530Z,76.69
2019-03-25T04:26:28.347Z,76.63
2019-03-25T04:28:50.279Z,77.25
2019-03-25T04:31:21.369Z,77.21
2019-03-25T04:33:52.383Z,77.77
2019-03-25T04:36:23.420Z,78.64
2019-03-25T04:38:54.486Z,79.21
2019-03-25T04:41:25.393Z,79.15
2019-03-25T04:43:56.481Z,79.37
2019-03-25T04:46:27.432Z,79.42
2019-03-25T04:48:58.600Z,79.65
2019-03-25T04:51:29.680Z,79.71
2019-03-25T04:54:00.604Z,79.29
2019-03-25T04:56:39.532Z,79.13
2019-03-25T04:59:05.478Z,79.15
2019-03-25T05:01:36.916Z,79.20
2019-03-25T05:04:09.062Z,79.55
2019-03-25T05:06:41.073Z,79.86
2019-03-25T05:09:12.380Z,79.36
2019-03-25T05:11:43.271Z,79.42
2019-03-25T05:14:14.443Z,79.60
2019-03-25T05:16:45.577Z,79.69
2019-03-25T05:19:16.601Z,80.13
2019-03-25T05:21:48.218Z,80.32
2019-03-25T05:24:19.312Z,79.91
2019-03-25T05:26:51.420Z,80.37
2019-03-25T05:29:22.657Z,80.41
2019-03-25T05:31:53.533Z,80.25
2019-03-25T05:34:24.818Z,80.65
2019-03-25T05:36:55.824Z,79.81
2019-03-25T05:39:26.859Z,79.81
2019-03-25T05:41:57.766Z,80.07
2019-03-25T05:44:28.906Z,80.07
2019-03-25T05:47:00.226Z,80.26
2019-03-25T05:49:31.003Z,80.35
2019-03-25T05:52:02.552Z,80.48
2019-03-25T05:54:33.726Z,79.56
2019-03-25T05:57:04.807Z,80.18
2019-03-25T05:59:36.006Z,79.89
2019-03-25T06:02:06.969Z,79.71
2019-03-25T06:04:37.731Z,79.11
2019-03-25T06:07:08.731Z,78.10
2019-03-25T06:09:40.020Z,77.04
2019-03-25T06:12:10.922Z,76.37
2019-03-25T06:14:43.353Z,75.15
2019-03-25T06:17:14.154Z,74.69
2019-03-25T06:19:44.819Z,74.48
2019-03-25T06:22:16.786Z,74.18
2019-03-25T06:24:48.135Z,73.95
2019-03-25T06:27:19.302Z,73.75
2019-03-25T06:29:50.532Z,74.37
2019-03-25T06:32:21.659Z,73.14
2019-03-25T06:34:52.541Z,72.50
2019-03-25T06:37:23.859Z,72.39
2019-03-25T06:39:55.052Z,72.62
2019-03-25T06:42:26.017Z,72.43
2019-03-25T06:44:56.976Z,72.60
2019-03-25T06:47:27.954Z,72.97
2019-03-25T06:49:59.027Z,72.44
2019-03-25T06:52:30.176Z,72.84
2019-03-25T06:55:01.125Z,71.84
2019-03-25T06:57:33.209Z,72.56
2019-03-25T07:00:07.732Z,71.72
2019-03-25T07:02:39.329Z,72.40
2019-03-25T07:05:10.672Z,71.88
2019-03-25T07:07:41.758Z,71.59
2019-03-25T07:10:12.849Z,71.55
2019-03-25T07:12:44.601Z,71.68
2019-03-25T07:15:18.852Z,71.84
2019-03-25T07:17:50.520Z,71.72
2019-03-25T07:20:25.535Z,71.10
2019-03-25T07:22:56.667Z,70.95
2019-03-25T07:25:27.638Z,71.00
2019-03-25T07:27:58.807Z,71.06
2019-03-25T07:30:29.457Z,71.21
2019-03-25T07:33:00.856Z,71.22
2019-03-25T07:35:31.680Z,71.17
2019-03-25T07:38:02.985Z,71.08
2019-03-25T07:40:34.341Z,70.48
2019-03-25T07:43:05.381Z,70.74
2019-03-25T07:45:36.560Z,70.28
2019-03-25T07:48:07.821Z,69.51
2019-03-25T07:50:38.859Z,69.88
2019-03-25T07:53:09.819Z,69.13
2019-03-25T07:55:41.424Z,69.38
2019-03-25T07:58:12.433Z,68.88
2019-03-25T08:00:43.938Z,68.83
2019-03-25T08:03:15.501Z,68.50
2019-03-25T08:05:47.398Z,67.43
2019-03-25T08:08:18.481Z,67.71
2019-03-25T08:10:50.392Z,67.53
2019-03-25T08:13:21.488Z,67.70
2019-03-25T08:15:52.939Z,66.99
2019-03-25T08:18:23.922Z,66.98
2019-03-25T08:20:54.858Z,67.20
2019-03-25T08:23:25.559Z,66.89
2019-03-25T08:25:57.319Z,67.60
2019-03-25T08:28:28.517Z,67.03
2019-03-25T08:31:00.398Z,66.76
2019-03-25T08:33:31.478Z,66.57
2019-03-25T08:36:03.621Z,66.62
2019-03-25T08:38:34.517Z,65.81
2019-03-25T08:41:06.438Z,64.90
2019-03-25T08:43:37.601Z,64.78
2019-03-25T08:46:08.678Z,64.67
2019-03-25T08:48:39.759Z,63.88
2019-03-25T08:51:11.197Z,64.15
2019-03-25T08:53:42.055Z,64.68
2019-03-25T08:56:13.679Z,64.03
2019-03-25T08:58:45.518Z,64.22
2019-03-25T09:01:16.398Z,64.11
2019-03-25T09:03:49.016Z,63.28
2019-03-25T09:06:23.238Z,62.67
2019-03-25T09:08:54.397Z,62.94
2019-03-25T09:11:25.806Z,62.10
2019-03-25T09:13:57.356Z,62.62
2019-03-25T09:16:29.010Z,62.23
2019-03-25T09:19:00.585Z,62.02
2019-03-25T09:21:31.720Z,62.43
2019-03-25T09:24:02.355Z,60.51
2019-03-25T09:26:33.687Z,60.74
2019-03-25T09:29:04.548Z,60.53
2019-03-25T09:31:37.035Z,60.46
2019-03-25T09:34:09.308Z,60.04
2019-03-25T09:36:40.725Z,59.73
2019-03-25T09:39:11.457Z,59.74
2019-03-25T09:41:43.831Z,59.45
2019-03-25T09:44:15.656Z,58.46
2019-03-25T09:46:47.215Z,58.73
2019-03-25T09:49:19.436Z,56.99
2019-03-25T09:51:52.897Z,57.28
2019-03-25T09:54:24.030Z,56.81
2019-03-25T09:56:55.841Z,56.88
2019-03-25T09:59:27.267Z,56.25
2019-03-25T10:01:58.449Z,56.58
2019-03-25T10:04:29.658Z,55.40
2019-03-25T10:07:02.127Z,56.01
2019-03-25T10:09:34.769Z,56.95
2019-03-25T10:12:06.138Z,54.55
2019-03-25T10:14:38.417Z,53.83
2019-03-25T10:17:09.147Z,51.25
2019-03-25T10:19:40.096Z,51.11
2019-03-25T10:22:11.116Z,51.08
2019-03-25T10:24:42.157Z,51.74
2019-03-25T10:27:12.631Z,51.95
2019-03-25T10:29:43.753Z,50.98
2019-03-25T10:32:14.709Z,50.85
2019-03-25T10:34:45.887Z,51.28
2019-03-25T10:37:17.080Z,50.49
2019-03-25T10:39:47.691Z,50.00
2019-03-25T10:42:19.287Z,50.98
2019-03-25T10:44:51.153Z,50.12
2019-03-25T10:47:21.789Z,49.76
2019-03-25T10:49:52.445Z,49.20
2019-03-25T10:52:23.839Z,50.05
2019-03-25T10:57:26.304Z,51.84
2019-03-25T10:59:58.666Z,52.95
2019-03-25T11:02:30.071Z,52.62
2019-03-25T11:05:01.549Z,53.05
2019-03-25T11:07:33.109Z,53.42
2019-03-25T11:10:07.251Z,53.72
2019-03-25T11:12:38.761Z,53.77
2019-03-25T11:15:10.169Z,54.46
2019-03-25T11:17:41.128Z,55.21
2019-03-25T11:20:14.347Z,56.99
2019-03-25T11:22:46.109Z,58.08
2019-03-25T11:25:17.736Z,59.15
2019-03-25T11:27:54.372Z,60.06
2019-03-25T11:30:25.586Z,60.87
2019-03-25T11:32:57.166Z,61.48
2019-03-25T11:35:28.210Z,64.59
2019-03-25T11:37:59.788Z,64.87
2019-03-25T11:40:31.789Z,66.15
2019-03-25T11:43:02.550Z,68.99
2019-03-25T11:45:34.691Z,70.04
2019-03-25T11:48:06.549Z,69.56
2019-03-25T11:50:37.673Z,70.59
2019-03-25T11:53:08.792Z,69.72
2019-03-25T11:55:39.495Z,72.84
2019-03-25T11:58:11.209Z,76.10
2019-03-25T12:00:42.842Z,78.42
2019-03-25T12:03:14.074Z,80.35
2019-03-25T12:05:44.709Z,82.00
2019-03-25T12:08:16.203Z,83.17
2019-03-25T12:10:46.714Z,83.82
2019-03-25T12:13:17.523Z,83.27
2019-03-25T12:15:48.650Z,83.44
2019-03-25T12:18:19.193Z,84.50
2019-03-25T12:20:50.575Z,84.83
2019-03-25T12:23:26.560Z,84.90
2019-03-25T12:25:57.909Z,85.07
2019-03-25T12:28:28.731Z,86.48
2019-03-25T12:30:59.211Z,85.24
2019-03-25T12:33:29.652Z,86.12
2019-03-25T12:36:00.178Z,85.01
2019-03-25T12:38:30.677Z,86.47
2019-03-25T12:41:01.487Z,86.64
2019-03-25T12:43:31.845Z,85.69
2019-03-25T12:46:04.620Z,85.81
2019-03-25T12:48:35.094Z,86.90
2019-03-25T12:51:06.034Z,85.80
2019-03-25T12:53:36.725Z,87.53
2019-03-25T12:56:07.263Z,85.89
2019-03-25T12:58:38.588Z,86.48
2019-03-25T13:01:10.063Z,86.98
2019-03-25T13:03:40.887Z,85.42
2019-03-25T13:06:11.664Z,86.09
2019-03-25T13:08:42.139Z,86.11
2019-03-25T13:11:12.550Z,84.90
2019-03-25T13:13:42.930Z,85.67
2019-03-25T13:16:13.397Z,85.21
2019-03-25T13:18:44.029Z,87.14
2019-03-25T13:21:14.497Z,85.87
2019-03-25T13:23:44.956Z,86.06
2019-03-25T13:26:15.365Z,84.78
2019-03-25T13:28:45.837Z,84.54
2019-03-25T13:31:16.379Z,86.59
2019-03-25T13:33:47.054Z,86.87
2019-03-25T13:36:17.669Z,86.05
2019-03-25T13:38:48.093Z,86.96
2019-03-25T13:41:18.490Z,86.48
2019-03-25T13:43:58.565Z,85.18
2019-03-25T13:46:44.517Z,84.73
2019-03-25T13:49:17.434Z,86.14
2019-03-25T13:51:48.069Z,87.40
2019-03-25T13:54:18.485Z,86.24
2019-03-25T13:56:48.935Z,87.69
2019-03-25T13:59:20.229Z,86.31
2019-03-25T14:01:52.276Z,87.79
2019-03-25T14:04:23.591Z,84.86
2019-03-25T14:06:55.130Z,85.22
2019-03-25T14:09:26.530Z,87.05
2019-03-25T14:11:57.790Z,86.53
2019-03-25T14:14:28.485Z,86.35
2019-03-25T14:17:00.249Z,85.65
2019-03-25T14:19:31.879Z,86.23
2019-03-25T14:22:03.008Z,85.71
2019-03-25T14:24:34.981Z,86.30
2019-03-25T14:27:05.635Z,86.37
2019-03-25T14:29:37.333Z,85.18
2019-03-25T14:32:07.864Z,85.71
2019-03-25T14:34:44.914Z,85.74
2019-03-25T14:37:14.716Z,83.79
2019-03-25T14:39:46.191Z,84.79
2019-03-25T14:42:20.316Z,84.33
2019-03-25T14:44:51.069Z,83.94
2019-03-25T14:47:26.749Z,83.52
2019-03-25T14:49:58.535Z,83.89
2019-03-25T14:52:29.581Z,82.91
2019-03-25T14:55:00.968Z,82.04
2019-03-25T14:57:31.925Z,82.58
2019-03-25T15:00:07.905Z,81.83
2019-03-25T15:02:38.690Z,82.45
2019-03-25T15:05:09.730Z,82.89
2019-03-25T15:07:42.221Z,84.54
2019-03-25T15:10:13.340Z,82.08
2019-03-25T15:12:45.551Z,83.42
2019-03-25T15:15:16.869Z,85.40
2019-03-25T15:17:47.654Z,84.83
2019-03-25T15:20:18.104Z,86.91
2019-03-25T15:22:51.444Z,87.68
2019-03-25T15:25:23.593Z,88.07
2019-03-25T15:27:54.632Z,89.52
2019-03-25T15:30:35.417Z,89.82
2019-03-25T15:33:00.057Z,90.32
2019-03-25T15:35:32.951Z,90.37
2019-03-25T15:38:05.194Z,90.24
2019-03-25T15:40:36.825Z,90.58
2019-03-25T15:43:08.029Z,90.82
2019-03-25T15:45:38.871Z,90.75
2019-03-25T15:48:10.710Z,89.84
2019-03-25T15:50:42.261Z,90.33
2019-03-25T15:53:13.752Z,90.52
2019-03-25T15:55:44.540Z,89.04
2019-03-25T15:58:25.633Z,90.67
2019-03-25T16:00:49.121Z,89.89
2019-03-25T16:03:19.999Z,89.31
2019-03-25T16:05:51.360Z,89.13
2019-03-25T16:08:22.166Z,89.36
2019-03-25T16:10:53.676Z,89.84
2019-03-25T16:13:24.820Z,90.22
2019-03-25T16:15:56.252Z,89.87
2019-03-25T16:18:30.830Z,90.14
2019-03-25T16:21:02.413Z,90.02
2019-03-25T16:23:33.791Z,89.83
2019-03-25T16:26:08.568Z,89.74
2019-03-25T16:28:40.061Z,89.62
2019-03-25T16:31:10.845Z,89.43
2019-03-25T16:33:41.243Z,90.06
2019-03-25T16:36:15.315Z,90.01
2019-03-25T16:38:45.939Z,89.91
2019-03-25T16:41:17.471Z,89.55
2019-03-25T16:43:48.087Z,89.64
2019-03-25T16:46:19.112Z,90.20
2019-03-25T16:48:50.229Z,90.04
2019-03-25T16:51:21.029Z,89.99
2019-03-25T16:53:51.722Z,89.87
2019-03-25T16:56:27.956Z,90.07
2019-03-25T16:59:05.841Z,89.95
2019-03-25T17:01:38.651Z,90.08
2019-03-25T17:04:10.111Z,89.70
2019-03-25T17:06:40.959Z,89.58
2019-03-25T17:09:12.033Z,89.97
2019-03-25T17:11:44.212Z,89.77
2019-03-25T17:14:15.409Z,89.65
2019-03-25T17:16:46.597Z,89.80
2019-03-25T17:19:19.110Z,89.94
2019-03-25T17:21:58.090Z,90.01
2019-03-25T17:24:32.368Z,89.16
2019-03-25T17:27:14.871Z,89.11
2019-03-25T17:29:51.271Z,89.59
2019-03-25T17:32:22.150Z,89.89
2019-03-25T17:34:56.533Z,90.03
2019-03-25T17:37:27.491Z,89.79
2019-03-25T17:39:59.023Z,89.48
2019-03-25T17:42:31.389Z,89.52
2019-03-25T17:45:02.275Z,89.49
2019-03-25T17:47:34.697Z,89.42
2019-03-25T17:50:09.010Z,88.67
2019-03-25T17:52:40.492Z,88.26
2019-03-25T17:55:11.672Z,88.95
2019-03-25T17:57:42.910Z,88.25
2019-03-25T18:00:15.621Z,88.26
2019-03-25T18:02:48.516Z,87.57
2019-03-25T18:05:20.240Z,87.71
2019-03-25T18:07:51.599Z,87.79
2019-03-25T18:10:23.270Z,88.58
2019-03-25T18:12:54.058Z,87.89
2019-03-25T18:15:25.358Z,87.95
2019-03-25T18:17:56.853Z,87.82
2019-03-25T18:20:36.532Z,88.17
2019-03-25T18:23:07.198Z,88.29
2019-03-25T18:25:38.106Z,88.15
2019-03-25T18:28:08.618Z,87.97
2019-03-25T18:30:39.024Z,87.46
2019-03-25T18:33:09.550Z,86.96
2019-03-25T18:35:40.753Z,87.57
2019-03-25T18:38:12.611Z,87.65
2019-03-25T18:40:44.244Z,88.04
2019-03-25T18:43:16.146Z,86.73
2019-03-25T18:45:47.534Z,87.06
2019-03-25T18:48:18.320Z,87.48
2019-03-25T18:50:49.402Z,87.22
2019-03-25T18:53:21.187Z,87.74
2019-03-25T18:55:52.242Z,87.22
2019-03-25T18:58:23.851Z,86.87
2019-03-25T19:00:56.630Z,87.07
2019-03-25T19:03:27.641Z,87.03
2019-03-25T19:06:00.297Z,87.36
2019-03-25T19:08:31.941Z,86.35
2019-03-25T19:11:04.266Z,87.10
2019-03-25T19:13:35.709Z,87.05
2019-03-25T19:16:07.086Z,87.38
2019-03-25T19:18:38.176Z,87.26
2019-03-25T19:21:08.829Z,87.51
2019-03-25T19:23:40.705Z,87.33
2019-03-25T19:26:12.332Z,87.58
2019-03-25T19:28:45.791Z,87.87
2019-03-25T19:31:23.035Z,87.92
2019-03-25T19:33:53.715Z,87.91
2019-03-25T19:36:24.166Z,87.60
2019-03-25T19:38:54.584Z,87.66
2019-03-25T19:41:32.222Z,87.61
2019-03-25T19:43:57.535Z,87.86
2019-03-25T19:46:28.004Z,87.79
2019-03-25T19:48:58.452Z,87.57
2019-03-25T19:51:28.843Z,87.72
2019-03-25T19:53:59.309Z,87.74
2019-03-25T19:56:50.850Z,88.02
2019-03-25T19:59:33.687Z,87.98
2019-03-25T20:02:05.671Z,87.92
2019-03-25T20:04:37.509Z,88.32
2019-03-25T20:07:10.193Z,88.09
2019-03-25T20:09:42.606Z,88.32
2019-03-25T20:12:14.516Z,88.32
2019-03-25T20:14:46.771Z,88.78
2019-03-25T20:17:20.474Z,88.77
2019-03-25T20:19:53.888Z,88.36
2019-03-25T20:22:27.415Z,88.26
2019-03-25T20:24:59.833Z,88.69
2019-03-25T20:27:33.234Z,89.04
2019-03-25T20:30:10.238Z,88.72
2019-03-25T20:32:44.128Z,88.89
2019-03-25T20:35:17.960Z,89.09
2019-03-25T20:37:51.001Z,89.20
2019-03-25T20:40:32.936Z,88.77
2019-03-25T20:43:06.015Z,89.25
2019-03-25T20:45:38.159Z,88.88
2019-03-25T20:48:10.187Z,88.82
2019-03-25T20:50:41.936Z,88.74
2019-03-25T20:53:14.190Z,88.50
2019-03-25T20:55:47.225Z,88.73
2019-03-25T20:58:19.968Z,88.88
2019-03-25T21:00:54.727Z,88.87
2019-03-25T21:03:26.622Z,88.84
2019-03-25T21:05:58.262Z,88.81
2019-03-25T21:08:30.579Z,88.59
2019-03-25T21:11:04.442Z,88.52
2019-03-25T21:13:36.428Z,88.29
2019-03-25T21:16:08.159Z,88.23
2019-03-25T21:18:42.744Z,88.15
2019-03-25T21:21:22.243Z,88.55
2019-03-25T21:23:58.037Z,88.16
2019-03-25T21:26:45.531Z,88.41
2019-03-25T21:29:22.892Z,88.16
2019-03-25T21:31:55.749Z,88.51
2019-03-25T21:34:27.931Z,88.29
2019-03-25T21:36:58.428Z,88.18
2019-03-25T21:39:29.531Z,88.14
2019-03-25T21:42:00.546Z,88.02
2019-03-25T21:44:31.752Z,87.89
2019-03-25T21:47:04.264Z,87.98
2019-03-25T21:49:35.496Z,87.81
2019-03-25T21:52:06.357Z,88.07
2019-03-25T21:54:37.770Z,87.93
2019-03-25T21:57:09.136Z,87.82
2019-03-25T21:59:40.559Z,87.77
2019-03-25T23:02:56.345Z,88.69
2019-03-25T23:05:27.505Z,88.63
2019-03-25T23:07:58.196Z,88.61
2019-03-25T23:10:29.173Z,88.56
2019-03-25T23:13:00.733Z,88.75
2019-03-25T23:15:32.394Z,88.89
2019-03-25T23:18:03.763Z,88.47
2019-03-25T23:20:35.671Z,88.37
2019-03-25T23:23:06.951Z,88.68
2019-03-25T23:25:38.232Z,88.88
2019-03-25T23:28:09.222Z,88.83
2019-03-25T23:30:40.728Z,88.87
2019-03-25T23:33:11.616Z,88.81
2019-03-25T23:35:43.029Z,88.42
2019-03-25T23:38:14.028Z,88.58
2019-03-25T23:40:45.226Z,88.60
2019-03-25T23:43:16.746Z,88.59
2019-03-25T23:45:47.527Z,88.21
2019-03-25T23:48:18.447Z,88.25
2019-03-25T23:50:49.729Z,87.70
2019-03-25T23:53:22.285Z,87.44
2019-03-25T23:55:53.704Z,87.86
2019-03-25T23:58:24.787Z,87.63
